Maybank, Mississippi
Current Conditions -  °F | °C
As of 9:53 AM on Friday 19 Dec 2014 (Local Time) from KHBG Reporting Station
Light Rain Light Rain  
Wind Chill: 44°   Ceiling: 10000
Heat Index: 47°   Visibility: 10mi
Dew Point: 42°   Wind: 6mph
Humidity: 83%   Direction: 80°E
Pressure: 30.2"   Gusts: NA
Location:  31.1996°N, 89.2694°W
Report Text: KHBG 191553Z AUTO 08005KT 10SM -RA FEW025 OVC100 08/06 A3020 RMK AO2 SLP225 P0002 T00830056
Loading
Personal Weather Stations






























Interactive Weather Map New forecast layout! Learn more

10-Day Weather Forecast

Advertisements
Track Severe Weather on mobile